sensor_id;sensor_type;location;lat;lon;timestamp;temperature;humidity
16116;DHT22;8162;47.104;15.432;2023-01-05T00:01:37;5.10;86.20
16116;DHT22;8162;47.104;15.432;2023-01-05T00:04:03;5.10;86.50
16116;DHT22;8162;47.104;15.432;2023-01-05T00:06:29;5.10;86.50
16116;DHT22;8162;47.104;15.432;2023-01-05T00:08:56;5.10;86.50
16116;DHT22;8162;47.104;15.432;2023-01-05T00:11:23;5.00;86.50
16116;DHT22;8162;47.104;15.432;2023-01-05T00:14:13;5.00;86.50
16116;DHT22;8162;47.104;15.432;2023-01-05T00:16:57;5.00;86.70
16116;DHT22;8162;47.104;15.432;2023-01-05T00:19:41;5.00;87.00
16116;DHT22;8162;47.104;15.432;2023-01-05T00:22:27;5.10;86.90
16116;DHT22;8162;47.104;15.432;2023-01-05T00:25:11;5.00;87.20
16116;DHT22;8162;47.104;15.432;2023-01-05T00:27:37;5.00;87.00
16116;DHT22;8162;47.104;15.432;2023-01-05T00:30:04;5.00;86.90
16116;DHT22;8162;47.104;15.432;2023-01-05T00:32:30;5.00;86.80
16116;DHT22;8162;47.104;15.432;2023-01-05T00:34:57;5.00;86.90
16116;DHT22;8162;47.104;15.432;2023-01-05T00:37:29;5.00;86.70
16116;DHT22;8162;47.104;15.432;2023-01-05T00:39:54;5.00;86.70
16116;DHT22;8162;47.104;15.432;2023-01-05T00:42:21;5.00;86.70
16116;DHT22;8162;47.104;15.432;2023-01-05T00:44:46;5.00;86.70
16116;DHT22;8162;47.104;15.432;2023-01-05T00:47:12;5.00;86.90
16116;DHT22;8162;47.104;15.432;2023-01-05T00:49:38;5.00;86.90
16116;DHT22;8162;47.104;15.432;2023-01-05T00:52:04;5.10;86.80
16116;DHT22;8162;47.104;15.432;2023-01-05T00:54:30;5.10;86.70
16116;DHT22;8162;47.104;15.432;2023-01-05T00:56:56;5.10;86.50
16116;DHT22;8162;47.104;15.432;2023-01-05T00:59:22;5.10;86.40
16116;DHT22;8162;47.104;15.432;2023-01-05T01:01:49;5.10;86.30
16116;DHT22;8162;47.104;15.432;2023-01-05T01:04:16;5.10;86.20
16116;DHT22;8162;47.104;15.432;2023-01-05T01:06:42;5.00;86.10
16116;DHT22;8162;47.104;15.432;2023-01-05T01:09:08;5.00;86.30
16116;DHT22;8162;47.104;15.432;2023-01-05T01:11:34;5.00;86.30
16116;DHT22;8162;47.104;15.432;2023-01-05T01:14:00;4.90;86.40
16116;DHT22;8162;47.104;15.432;2023-01-05T01:16:26;5.00;86.30
16116;DHT22;8162;47.104;15.432;2023-01-05T01:18:51;5.00;86.30
16116;DHT22;8162;47.104;15.432;2023-01-05T01:21:17;5.00;86.50
16116;DHT22;8162;47.104;15.432;2023-01-05T01:23:43;4.90;86.90
16116;DHT22;8162;47.104;15.432;2023-01-05T01:26:11;4.90;86.90
16116;DHT22;8162;47.104;15.432;2023-01-05T01:28:37;4.90;86.70
16116;DHT22;8162;47.104;15.432;2023-01-05T01:31:04;4.90;86.50
16116;DHT22;8162;47.104;15.432;2023-01-05T01:33:30;4.90;86.50
16116;DHT22;8162;47.104;15.432;2023-01-05T01:35:56;4.90;86.60
16116;DHT22;8162;47.104;15.432;2023-01-05T01:38:22;4.90;86.70
16116;DHT22;8162;47.104;15.432;2023-01-05T01:40:49;4.90;86.60
16116;DHT22;8162;47.104;15.432;2023-01-05T01:43:39;4.90;86.70
16116;DHT22;8162;47.104;15.432;2023-01-05T01:46:05;4.90;86.50
16116;DHT22;8162;47.104;15.432;2023-01-05T01:48:32;4.90;86.70
16116;DHT22;8162;47.104;15.432;2023-01-05T01:51:00;4.90;86.50
16116;DHT22;8162;47.104;15.432;2023-01-05T01:53:39;4.90;86.60
16116;DHT22;8162;47.104;15.432;2023-01-05T01:56:09;4.90;86.70
16116;DHT22;8162;47.104;15.432;2023-01-05T01:58:36;4.90;86.60
16116;DHT22;8162;47.104;15.432;2023-01-05T02:01:02;4.90;86.50
16116;DHT22;8162;47.104;15.432;2023-01-05T02:03:29;4.80;86.80
16116;DHT22;8162;47.104;15.432;2023-01-05T02:05:56;4.80;86.70
16116;DHT22;8162;47.104;15.432;2023-01-05T02:08:22;4.90;86.70
16116;DHT22;8162;47.104;15.432;2023-01-05T02:11:17;4.90;86.80
16116;DHT22;8162;47.104;15.432;2023-01-05T02:16:55;4.70;86.90
16116;DHT22;8162;47.104;15.432;2023-01-05T02:27:47;4.50;87.20
16116;DHT22;8162;47.104;15.432;2023-01-05T02:30:46;4.50;87.00
16116;DHT22;8162;47.104;15.432;2023-01-05T02:33:33;4.50;87.10
16116;DHT22;8162;47.104;15.432;2023-01-05T02:41:37;4.40;88.00
16116;DHT22;8162;47.104;15.432;2023-01-05T02:44:07;4.40;87.80
16116;DHT22;8162;47.104;15.432;2023-01-05T02:46:33;4.40;87.50
16116;DHT22;8162;47.104;15.432;2023-01-05T02:49:01;4.40;87.30
16116;DHT22;8162;47.104;15.432;2023-01-05T02:51:41;4.40;87.30
16116;DHT22;8162;47.104;15.432;2023-01-05T02:54:18;4.40;87.40
16116;DHT22;8162;47.104;15.432;2023-01-05T02:56:59;4.40;87.50
16116;DHT22;8162;47.104;15.432;2023-01-05T02:59:32;4.50;87.50
16116;DHT22;8162;47.104;15.432;2023-01-05T03:02:04;4.50;87.40
16116;DHT22;8162;47.104;15.432;2023-01-05T03:04:36;4.50;87.50
16116;DHT22;8162;47.104;15.432;2023-01-05T03:07:08;4.50;87.40
16116;DHT22;8162;47.104;15.432;2023-01-05T03:09:38;4.50;87.40
16116;DHT22;8162;47.104;15.432;2023-01-05T03:12:18;4.50;87.40
16116;DHT22;8162;47.104;15.432;2023-01-05T03:15:29;4.50;87.30
16116;DHT22;8162;47.104;15.432;2023-01-05T03:18:03;4.40;87.30
16116;DHT22;8162;47.104;15.432;2023-01-05T03:20:32;4.40;87.50
16116;DHT22;8162;47.104;15.432;2023-01-05T03:22:59;4.40;87.50
16116;DHT22;8162;47.104;15.432;2023-01-05T03:25:45;4.40;87.40
16116;DHT22;8162;47.104;15.432;2023-01-05T03:28:55;4.40;87.20
16116;DHT22;8162;47.104;15.432;2023-01-05T03:31:56;4.40;87.30
16116;DHT22;8162;47.104;15.432;2023-01-05T03:34:49;4.40;87.20
16116;DHT22;8162;47.104;15.432;2023-01-05T03:38:18;4.30;87.30
16116;DHT22;8162;47.104;15.432;2023-01-05T03:40:41;4.30;87.20
16116;DHT22;8162;47.104;15.432;2023-01-05T03:43:07;4.30;87.20
16116;DHT22;8162;47.104;15.432;2023-01-05T03:45:43;4.20;87.30
16116;DHT22;8162;47.104;15.432;2023-01-05T03:48:09;4.20;87.20
16116;DHT22;8162;47.104;15.432;2023-01-05T03:50:35;4.20;87.60
16116;DHT22;8162;47.104;15.432;2023-01-05T03:53:02;4.20;87.50
16116;DHT22;8162;47.104;15.432;2023-01-05T03:55:28;4.20;87.30
16116;DHT22;8162;47.104;15.432;2023-01-05T03:57:54;4.20;87.60
16116;DHT22;8162;47.104;15.432;2023-01-05T04:00:20;4.20;87.50
16116;DHT22;8162;47.104;15.432;2023-01-05T04:02:46;4.20;87.60
16116;DHT22;8162;47.104;15.432;2023-01-05T04:05:12;4.20;87.90
16116;DHT22;8162;47.104;15.432;2023-01-05T04:07:38;4.10;88.20
16116;DHT22;8162;47.104;15.432;2023-01-05T04:10:04;4.10;88.00
16116;DHT22;8162;47.104;15.432;2023-01-05T04:12:30;4.10;87.60
16116;DHT22;8162;47.104;15.432;2023-01-05T04:14:55;4.00;88.00
16116;DHT22;8162;47.104;15.432;2023-01-05T04:17:21;4.00;88.60
16116;DHT22;8162;47.104;15.432;2023-01-05T04:19:47;4.00;88.50
16116;DHT22;8162;47.104;15.432;2023-01-05T04:22:12;4.00;88.10
16116;DHT22;8162;47.104;15.432;2023-01-05T04:24:38;4.10;88.10
16116;DHT22;8162;47.104;15.432;2023-01-05T04:27:04;4.00;88.20
16116;DHT22;8162;47.104;15.432;2023-01-05T04:29:29;4.00;88.10
16116;DHT22;8162;47.104;15.432;2023-01-05T04:31:55;4.10;87.90
16116;DHT22;8162;47.104;15.432;2023-01-05T04:34:21;4.10;87.90
16116;DHT22;8162;47.104;15.432;2023-01-05T04:36:46;4.10;87.80
16116;DHT22;8162;47.104;15.432;2023-01-05T04:39:14;4.10;87.70
16116;DHT22;8162;47.104;15.432;2023-01-05T04:41:39;4.10;87.70
16116;DHT22;8162;47.104;15.432;2023-01-05T04:44:05;4.10;87.50
16116;DHT22;8162;47.104;15.432;2023-01-05T04:46:31;4.10;87.60
16116;DHT22;8162;47.104;15.432;2023-01-05T04:48:57;4.10;87.40
16116;DHT22;8162;47.104;15.432;2023-01-05T04:51:23;4.10;87.30
16116;DHT22;8162;47.104;15.432;2023-01-05T04:53:49;4.00;87.20
16116;DHT22;8162;47.104;15.432;2023-01-05T04:56:14;4.00;87.50
16116;DHT22;8162;47.104;15.432;2023-01-05T04:58:41;4.00;87.40
16116;DHT22;8162;47.104;15.432;2023-01-05T05:01:07;4.00;87.50
16116;DHT22;8162;47.104;15.432;2023-01-05T05:03:32;4.00;87.40
16116;DHT22;8162;47.104;15.432;2023-01-05T05:05:58;3.90;87.70
16116;DHT22;8162;47.104;15.432;2023-01-05T05:08:24;3.90;87.60
16116;DHT22;8162;47.104;15.432;2023-01-05T05:10:49;3.90;87.50
16116;DHT22;8162;47.104;15.432;2023-01-05T05:13:15;3.80;87.50
16116;DHT22;8162;47.104;15.432;2023-01-05T05:15:43;3.80;87.50
16116;DHT22;8162;47.104;15.432;2023-01-05T05:18:09;3.70;87.90
16116;DHT22;8162;47.104;15.432;2023-01-05T05:20:34;3.60;87.80
16116;DHT22;8162;47.104;15.432;2023-01-05T05:23:00;3.60;88.30
16116;DHT22;8162;47.104;15.432;2023-01-05T05:25:26;3.60;88.10
16116;DHT22;8162;47.104;15.432;2023-01-05T05:27:51;3.50;88.20
16116;DHT22;8162;47.104;15.432;2023-01-05T05:30:17;3.50;88.40
16116;DHT22;8162;47.104;15.432;2023-01-05T05:33:00;3.50;88.50
16116;DHT22;8162;47.104;15.432;2023-01-05T05:35:25;3.50;88.30
16116;DHT22;8162;47.104;15.432;2023-01-05T05:37:51;3.60;88.40
16116;DHT22;8162;47.104;15.432;2023-01-05T05:40:17;3.60;88.30
16116;DHT22;8162;47.104;15.432;2023-01-05T05:42:42;3.60;88.40
16116;DHT22;8162;47.104;15.432;2023-01-05T05:45:08;3.60;88.20
16116;DHT22;8162;47.104;15.432;2023-01-05T05:47:34;3.60;88.20
16116;DHT22;8162;47.104;15.432;2023-01-05T05:50:00;3.60;88.20
16116;DHT22;8162;47.104;15.432;2023-01-05T05:52:25;3.60;88.50
16116;DHT22;8162;47.104;15.432;2023-01-05T05:54:51;3.60;88.60
16116;DHT22;8162;47.104;15.432;2023-01-05T05:57:17;3.60;89.10
16116;DHT22;8162;47.104;15.432;2023-01-05T05:59:43;3.60;89.20
16116;DHT22;8162;47.104;15.432;2023-01-05T06:02:08;3.60;89.00
16116;DHT22;8162;47.104;15.432;2023-01-05T06:04:34;3.70;88.80
16116;DHT22;8162;47.104;15.432;2023-01-05T06:07:00;3.70;88.70
16116;DHT22;8162;47.104;15.432;2023-01-05T06:09:25;3.70;88.80
16116;DHT22;8162;47.104;15.432;2023-01-05T06:11:51;3.80;88.70
16116;DHT22;8162;47.104;15.432;2023-01-05T06:14:17;3.80;89.00
16116;DHT22;8162;47.104;15.432;2023-01-05T06:16:43;3.90;88.80
16116;DHT22;8162;47.104;15.432;2023-01-05T06:19:10;3.90;88.80
16116;DHT22;8162;47.104;15.432;2023-01-05T06:21:36;3.90;88.80
16116;DHT22;8162;47.104;15.432;2023-01-05T06:24:02;3.90;88.80
16116;DHT22;8162;47.104;15.432;2023-01-05T06:26:28;4.00;88.70
16116;DHT22;8162;47.104;15.432;2023-01-05T06:28:53;4.00;88.50
16116;DHT22;8162;47.104;15.432;2023-01-05T06:31:19;4.00;88.50
16116;DHT22;8162;47.104;15.432;2023-01-05T06:33:45;4.00;88.50
16116;DHT22;8162;47.104;15.432;2023-01-05T06:36:11;4.10;88.60
16116;DHT22;8162;47.104;15.432;2023-01-05T06:38:36;4.10;88.40
16116;DHT22;8162;47.104;15.432;2023-01-05T06:41:02;4.10;88.30
16116;DHT22;8162;47.104;15.432;2023-01-05T06:43:28;4.20;88.30
16116;DHT22;8162;47.104;15.432;2023-01-05T06:45:53;4.20;87.90
16116;DHT22;8162;47.104;15.432;2023-01-05T06:48:19;4.20;88.30
16116;DHT22;8162;47.104;15.432;2023-01-05T06:50:45;4.20;88.00
16116;DHT22;8162;47.104;15.432;2023-01-05T06:53:11;4.10;88.30
16116;DHT22;8162;47.104;15.432;2023-01-05T06:55:36;4.10;88.60
16116;DHT22;8162;47.104;15.432;2023-01-05T06:58:02;4.20;88.40
16116;DHT22;8162;47.104;15.432;2023-01-05T07:00:28;4.20;88.30
16116;DHT22;8162;47.104;15.432;2023-01-05T07:02:54;4.20;88.40
16116;DHT22;8162;47.104;15.432;2023-01-05T07:05:20;4.30;88.30
16116;DHT22;8162;47.104;15.432;2023-01-05T07:07:47;4.30;88.30
16116;DHT22;8162;47.104;15.432;2023-01-05T07:10:13;4.40;88.40
16116;DHT22;8162;47.104;15.432;2023-01-05T07:12:39;4.40;88.40
16116;DHT22;8162;47.104;15.432;2023-01-05T07:15:05;4.40;88.60
16116;DHT22;8162;47.104;15.432;2023-01-05T07:17:31;4.50;88.50
16116;DHT22;8162;47.104;15.432;2023-01-05T07:19:57;4.50;89.00
16116;DHT22;8162;47.104;15.432;2023-01-05T07:22:23;4.50;88.70
16116;DHT22;8162;47.104;15.432;2023-01-05T07:24:49;4.50;89.00
16116;DHT22;8162;47.104;15.432;2023-01-05T07:27:14;4.50;89.20
16116;DHT22;8162;47.104;15.432;2023-01-05T07:29:40;4.50;89.10
16116;DHT22;8162;47.104;15.432;2023-01-05T07:32:06;4.60;89.10
16116;DHT22;8162;47.104;15.432;2023-01-05T07:34:32;4.70;89.00
16116;DHT22;8162;47.104;15.432;2023-01-05T07:36:57;4.70;89.20
16116;DHT22;8162;47.104;15.432;2023-01-05T07:39:23;4.70;89.00
16116;DHT22;8162;47.104;15.432;2023-01-05T07:41:49;4.80;88.90
16116;DHT22;8162;47.104;15.432;2023-01-05T07:44:14;4.90;89.10
16116;DHT22;8162;47.104;15.432;2023-01-05T07:46:40;4.90;88.90
16116;DHT22;8162;47.104;15.432;2023-01-05T07:49:06;5.00;89.00
16116;DHT22;8162;47.104;15.432;2023-01-05T07:51:32;5.00;89.00
16116;DHT22;8162;47.104;15.432;2023-01-05T07:53:57;5.00;89.00
16116;DHT22;8162;47.104;15.432;2023-01-05T07:56:23;5.10;89.10
16116;DHT22;8162;47.104;15.432;2023-01-05T07:58:49;5.10;88.30
16116;DHT22;8162;47.104;15.432;2023-01-05T08:01:15;5.10;88.40
16116;DHT22;8162;47.104;15.432;2023-01-05T08:03:43;5.20;87.80
16116;DHT22;8162;47.104;15.432;2023-01-05T08:06:14;5.20;88.40
16116;DHT22;8162;47.104;15.432;2023-01-05T08:08:40;5.30;88.10
16116;DHT22;8162;47.104;15.432;2023-01-05T08:11:08;5.30;88.50
16116;DHT22;8162;47.104;15.432;2023-01-05T08:13:34;5.30;88.50
16116;DHT22;8162;47.104;15.432;2023-01-05T08:16:18;5.40;88.50
16116;DHT22;8162;47.104;15.432;2023-01-05T08:18:44;5.50;88.30
16116;DHT22;8162;47.104;15.432;2023-01-05T08:21:10;5.50;88.00
16116;DHT22;8162;47.104;15.432;2023-01-05T08:23:37;5.50;88.30
16116;DHT22;8162;47.104;15.432;2023-01-05T08:26:10;5.60;87.80
16116;DHT22;8162;47.104;15.432;2023-01-05T08:28:36;5.60;87.60
16116;DHT22;8162;47.104;15.432;2023-01-05T08:31:07;5.70;87.70
16116;DHT22;8162;47.104;15.432;2023-01-05T08:33:34;5.70;87.20
16116;DHT22;8162;47.104;15.432;2023-01-05T08:36:01;5.80;87.70
16116;DHT22;8162;47.104;15.432;2023-01-05T08:38:26;5.80;87.20
16116;DHT22;8162;47.104;15.432;2023-01-05T08:40:52;5.90;87.70
16116;DHT22;8162;47.104;15.432;2023-01-05T08:43:22;5.90;87.00
16116;DHT22;8162;47.104;15.432;2023-01-05T08:45:48;6.00;86.80
16116;DHT22;8162;47.104;15.432;2023-01-05T08:48:16;6.10;86.80
16116;DHT22;8162;47.104;15.432;2023-01-05T08:50:42;6.20;87.10
16116;DHT22;8162;47.104;15.432;2023-01-05T08:53:07;6.30;86.30
16116;DHT22;8162;47.104;15.432;2023-01-05T08:55:33;6.30;85.70
16116;DHT22;8162;47.104;15.432;2023-01-05T08:57:59;6.30;85.70
16116;DHT22;8162;47.104;15.432;2023-01-05T09:00:24;6.40;85.50
16116;DHT22;8162;47.104;15.432;2023-01-05T09:02:50;6.50;85.30
16116;DHT22;8162;47.104;15.432;2023-01-05T09:05:16;6.60;85.20
16116;DHT22;8162;47.104;15.432;2023-01-05T09:07:41;6.60;84.50
16116;DHT22;8162;47.104;15.432;2023-01-05T09:10:08;6.70;84.70
16116;DHT22;8162;47.104;15.432;2023-01-05T09:12:34;6.70;84.10
16116;DHT22;8162;47.104;15.432;2023-01-05T09:15:01;6.80;84.50
16116;DHT22;8162;47.104;15.432;2023-01-05T09:17:27;6.80;84.10
16116;DHT22;8162;47.104;15.432;2023-01-05T09:19:53;6.90;83.80
16116;DHT22;8162;47.104;15.432;2023-01-05T09:22:18;7.00;84.20
16116;DHT22;8162;47.104;15.432;2023-01-05T09:24:44;7.00;83.00
16116;DHT22;8162;47.104;15.432;2023-01-05T09:27:10;7.00;82.50
16116;DHT22;8162;47.104;15.432;2023-01-05T09:29:36;7.00;82.20
16116;DHT22;8162;47.104;15.432;2023-01-05T09:32:01;7.20;81.80
16116;DHT22;8162;47.104;15.432;2023-01-05T09:34:28;7.20;82.30
16116;DHT22;8162;47.104;15.432;2023-01-05T09:36:53;7.20;82.20
16116;DHT22;8162;47.104;15.432;2023-01-05T09:39:19;7.20;82.00
16116;DHT22;8162;47.104;15.432;2023-01-05T09:41:54;7.30;82.00
16116;DHT22;8162;47.104;15.432;2023-01-05T09:44:45;7.40;81.10
16116;DHT22;8162;47.104;15.432;2023-01-05T09:49:57;7.30;79.70
16116;DHT22;8162;47.104;15.432;2023-01-05T09:52:24;7.20;79.80
16116;DHT22;8162;47.104;15.432;2023-01-05T09:54:50;7.40;79.60
16116;DHT22;8162;47.104;15.432;2023-01-05T09:57:25;7.40;79.20
16116;DHT22;8162;47.104;15.432;2023-01-05T10:00:04;7.40;78.20
16116;DHT22;8162;47.104;15.432;2023-01-05T10:02:48;7.40;79.00
16116;DHT22;8162;47.104;15.432;2023-01-05T10:05:15;7.40;79.20
16116;DHT22;8162;47.104;15.432;2023-01-05T10:08:00;7.40;79.60
16116;DHT22;8162;47.104;15.432;2023-01-05T10:13:02;7.40;80.50
16116;DHT22;8162;47.104;15.432;2023-01-05T10:15:41;7.40;80.50
16116;DHT22;8162;47.104;15.432;2023-01-05T10:18:22;7.40;80.40
16116;DHT22;8162;47.104;15.432;2023-01-05T10:23:54;7.50;80.90
16116;DHT22;8162;47.104;15.432;2023-01-05T10:27:00;7.50;80.90
16116;DHT22;8162;47.104;15.432;2023-01-05T10:29:22;7.50;81.00
16116;DHT22;8162;47.104;15.432;2023-01-05T10:40:02;7.80;81.20
16116;DHT22;8162;47.104;15.432;2023-01-05T10:45:17;7.90;80.50
16116;DHT22;8162;47.104;15.432;2023-01-05T10:47:44;8.00;80.30
16116;DHT22;8162;47.104;15.432;2023-01-05T10:50:37;8.00;78.80
16116;DHT22;8162;47.104;15.432;2023-01-05T10:53:13;8.00;77.90
16116;DHT22;8162;47.104;15.432;2023-01-05T10:56:02;8.10;77.30
16116;DHT22;8162;47.104;15.432;2023-01-05T10:58:32;8.10;77.90
16116;DHT22;8162;47.104;15.432;2023-01-05T11:01:24;8.10;78.10
16116;DHT22;8162;47.104;15.432;2023-01-05T11:04:03;8.10;77.70
16116;DHT22;8162;47.104;15.432;2023-01-05T11:06:32;8.10;78.60
16116;DHT22;8162;47.104;15.432;2023-01-05T11:09:25;8.10;78.60
16116;DHT22;8162;47.104;15.432;2023-01-05T11:12:01;8.10;79.10
16116;DHT22;8162;47.104;15.432;2023-01-05T11:14:29;8.10;78.90
16116;DHT22;8162;47.104;15.432;2023-01-05T11:17:05;8.20;78.70
16116;DHT22;8162;47.104;15.432;2023-01-05T11:19:35;8.20;78.70
16116;DHT22;8162;47.104;15.432;2023-01-05T11:22:01;8.30;77.70
16116;DHT22;8162;47.104;15.432;2023-01-05T11:24:33;8.30;77.60
16116;DHT22;8162;47.104;15.432;2023-01-05T11:29:45;8.40;78.40
16116;DHT22;8162;47.104;15.432;2023-01-05T11:32:27;8.50;77.10
16116;DHT22;8162;47.104;15.432;2023-01-05T11:34:53;8.60;76.60
16116;DHT22;8162;47.104;15.432;2023-01-05T11:37:26;8.60;77.30
16116;DHT22;8162;47.104;15.432;2023-01-05T11:40:02;8.70;77.40
16116;DHT22;8162;47.104;15.432;2023-01-05T11:42:33;8.80;77.20
16116;DHT22;8162;47.104;15.432;2023-01-05T11:45:19;8.90;77.80
16116;DHT22;8162;47.104;15.432;2023-01-05T11:50:29;9.10;77.60
16116;DHT22;8162;47.104;15.432;2023-01-05T11:52:57;9.20;76.30
16116;DHT22;8162;47.104;15.432;2023-01-05T11:55:37;9.20;76.60
16116;DHT22;8162;47.104;15.432;2023-01-05T12:06:34;9.40;75.60
16116;DHT22;8162;47.104;15.432;2023-01-05T12:11:52;9.40;77.10
16116;DHT22;8162;47.104;15.432;2023-01-05T12:16:54;9.40;77.00
16116;DHT22;8162;47.104;15.432;2023-01-05T12:25:14;9.70;74.90
16116;DHT22;8162;47.104;15.432;2023-01-05T12:28:14;9.80;74.40
16116;DHT22;8162;47.104;15.432;2023-01-05T12:33:21;10.00;75.20
16116;DHT22;8162;47.104;15.432;2023-01-05T12:38:56;10.00;75.50
16116;DHT22;8162;47.104;15.432;2023-01-05T12:41:44;10.00;75.00
16116;DHT22;8162;47.104;15.432;2023-01-05T12:44:41;10.10;74.90
16116;DHT22;8162;47.104;15.432;2023-01-05T12:49:58;10.20;74.50
16116;DHT22;8162;47.104;15.432;2023-01-05T12:52:41;10.20;74.90
16116;DHT22;8162;47.104;15.432;2023-01-05T12:55:26;10.30;73.80
16116;DHT22;8162;47.104;15.432;2023-01-05T12:58:17;10.20;73.80
16116;DHT22;8162;47.104;15.432;2023-01-05T13:00:45;10.20;74.00
16116;DHT22;8162;47.104;15.432;2023-01-05T13:03:29;10.20;74.90
16116;DHT22;8162;47.104;15.432;2023-01-05T13:06:05;10.30;74.50
16116;DHT22;8162;47.104;15.432;2023-01-05T13:08:43;10.30;74.40
16116;DHT22;8162;47.104;15.432;2023-01-05T13:11:16;10.30;74.40
16116;DHT22;8162;47.104;15.432;2023-01-05T13:13:55;10.30;75.40
16116;DHT22;8162;47.104;15.432;2023-01-05T13:16:35;10.30;75.00
16116;DHT22;8162;47.104;15.432;2023-01-05T13:21:54;10.40;72.80
16116;DHT22;8162;47.104;15.432;2023-01-05T13:24:50;10.40;73.40
16116;DHT22;8162;47.104;15.432;2023-01-05T13:27:16;10.40;73.70
16116;DHT22;8162;47.104;15.432;2023-01-05T13:29:48;10.30;74.70
16116;DHT22;8162;47.104;15.432;2023-01-05T13:44:18;10.30;73.30
16116;DHT22;8162;47.104;15.432;2023-01-05T13:50:02;10.40;74.00
16116;DHT22;8162;47.104;15.432;2023-01-05T13:53:33;10.40;74.00
16116;DHT22;8162;47.104;15.432;2023-01-05T13:55:55;10.30;74.20
16116;DHT22;8162;47.104;15.432;2023-01-05T14:01:04;10.50;68.10
16116;DHT22;8162;47.104;15.432;2023-01-05T14:03:51;10.70;66.00
16116;DHT22;8162;47.104;15.432;2023-01-05T14:06:29;10.80;67.50
16116;DHT22;8162;47.104;15.432;2023-01-05T14:09:06;10.90;67.50
16116;DHT22;8162;47.104;15.432;2023-01-05T14:11:34;11.00;67.90
16116;DHT22;8162;47.104;15.432;2023-01-05T14:14:02;11.00;67.70
16116;DHT22;8162;47.104;15.432;2023-01-05T14:19:13;11.10;67.20
16116;DHT22;8162;47.104;15.432;2023-01-05T14:24:41;11.20;65.60
16116;DHT22;8162;47.104;15.432;2023-01-05T14:27:23;11.30;65.80
16116;DHT22;8162;47.104;15.432;2023-01-05T14:32:27;11.40;67.10
16116;DHT22;8162;47.104;15.432;2023-01-05T14:34:59;11.40;68.10
16116;DHT22;8162;47.104;15.432;2023-01-05T14:40:27;11.40;68.30
16116;DHT22;8162;47.104;15.432;2023-01-05T14:42:55;11.40;67.90
16116;DHT22;8162;47.104;15.432;2023-01-05T14:45:29;11.50;67.60
16116;DHT22;8162;47.104;15.432;2023-01-05T14:47:57;11.50;66.90
16116;DHT22;8162;47.104;15.432;2023-01-05T14:50:33;11.50;66.40
16116;DHT22;8162;47.104;15.432;2023-01-05T14:55:29;11.50;66.40
16116;DHT22;8162;47.104;15.432;2023-01-05T14:57:57;11.50;66.40
16116;DHT22;8162;47.104;15.432;2023-01-05T15:03:23;11.40;66.30
16116;DHT22;8162;47.104;15.432;2023-01-05T15:06:08;11.40;66.20
16116;DHT22;8162;47.104;15.432;2023-01-05T15:11:37;11.40;66.20
16116;DHT22;8162;47.104;15.432;2023-01-05T15:21:04;11.40;65.30
16116;DHT22;8162;47.104;15.432;2023-01-05T15:23:33;11.30;66.10
16116;DHT22;8162;47.104;15.432;2023-01-05T15:26:26;11.30;66.20
16116;DHT22;8162;47.104;15.432;2023-01-05T15:31:37;11.20;66.50
16116;DHT22;8162;47.104;15.432;2023-01-05T15:34:33;11.20;66.30
16116;DHT22;8162;47.104;15.432;2023-01-05T15:39:48;11.10;66.90
16116;DHT22;8162;47.104;15.432;2023-01-05T15:42:27;11.10;67.10
16116;DHT22;8162;47.104;15.432;2023-01-05T15:44:54;11.10;67.10
16116;DHT22;8162;47.104;15.432;2023-01-05T15:47:23;11.10;67.30
16116;DHT22;8162;47.104;15.432;2023-01-05T15:49:50;11.00;67.60
16116;DHT22;8162;47.104;15.432;2023-01-05T15:52:27;11.00;67.60
16116;DHT22;8162;47.104;15.432;2023-01-05T15:55:14;11.00;67.10
16116;DHT22;8162;47.104;15.432;2023-01-05T15:57:41;11.00;67.70
16116;DHT22;8162;47.104;15.432;2023-01-05T16:00:26;10.90;67.80
16116;DHT22;8162;47.104;15.432;2023-01-05T16:02:52;10.90;67.70
16116;DHT22;8162;47.104;15.432;2023-01-05T16:05:24;10.90;67.80
16116;DHT22;8162;47.104;15.432;2023-01-05T16:13:13;10.80;68.40
16116;DHT22;8162;47.104;15.432;2023-01-05T16:15:41;10.70;68.80
16116;DHT22;8162;47.104;15.432;2023-01-05T16:18:13;10.70;68.90
16116;DHT22;8162;47.104;15.432;2023-01-05T16:20:41;10.70;69.20
16116;DHT22;8162;47.104;15.432;2023-01-05T16:23:44;10.60;69.70
16116;DHT22;8162;47.104;15.432;2023-01-05T16:26:15;10.60;70.20
16116;DHT22;8162;47.104;15.432;2023-01-05T16:28:43;10.50;70.70
16116;DHT22;8162;47.104;15.432;2023-01-05T16:31:14;10.50;71.00
16116;DHT22;8162;47.104;15.432;2023-01-05T16:34:03;10.40;71.20
16116;DHT22;8162;47.104;15.432;2023-01-05T16:36:29;10.40;71.10
16116;DHT22;8162;47.104;15.432;2023-01-05T16:39:21;10.30;71.20
16116;DHT22;8162;47.104;15.432;2023-01-05T16:41:47;10.30;71.70
16116;DHT22;8162;47.104;15.432;2023-01-05T16:44:32;10.20;72.00
16116;DHT22;8162;47.104;15.432;2023-01-05T16:47:08;10.20;72.20
16116;DHT22;8162;47.104;15.432;2023-01-05T16:49:37;10.10;72.00
16116;DHT22;8162;47.104;15.432;2023-01-05T16:52:07;10.10;72.40
16116;DHT22;8162;47.104;15.432;2023-01-05T16:54:38;10.10;72.50
16116;DHT22;8162;47.104;15.432;2023-01-05T16:59:57;10.00;73.50
16116;DHT22;8162;47.104;15.432;2023-01-05T17:05:09;9.90;73.50
16116;DHT22;8162;47.104;15.432;2023-01-05T17:07:37;9.80;73.90
16116;DHT22;8162;47.104;15.432;2023-01-05T17:10:22;9.80;73.90
16116;DHT22;8162;47.104;15.432;2023-01-05T17:13:02;9.70;74.10
16116;DHT22;8162;47.104;15.432;2023-01-05T17:15:31;9.70;74.70
16116;DHT22;8162;47.104;15.432;2023-01-05T17:17:57;9.60;75.00
16116;DHT22;8162;47.104;15.432;2023-01-05T17:20:27;9.60;74.80
16116;DHT22;8162;47.104;15.432;2023-01-05T17:22:53;9.60;75.00
16116;DHT22;8162;47.104;15.432;2023-01-05T17:25:20;9.50;75.20
16116;DHT22;8162;47.104;15.432;2023-01-05T17:27:46;9.50;75.20
16116;DHT22;8162;47.104;15.432;2023-01-05T17:30:21;9.50;75.40
16116;DHT22;8162;47.104;15.432;2023-01-05T17:32:47;9.50;75.50
16116;DHT22;8162;47.104;15.432;2023-01-05T17:35:13;9.40;75.60
16116;DHT22;8162;47.104;15.432;2023-01-05T17:37:39;9.40;75.40
16116;DHT22;8162;47.104;15.432;2023-01-05T17:40:05;9.40;75.60
16116;DHT22;8162;47.104;15.432;2023-01-05T17:42:31;9.40;75.50
16116;DHT22;8162;47.104;15.432;2023-01-05T17:45:17;9.40;75.70
16116;DHT22;8162;47.104;15.432;2023-01-05T17:47:43;9.40;75.60
16116;DHT22;8162;47.104;15.432;2023-01-05T17:50:27;9.40;75.50
16116;DHT22;8162;47.104;15.432;2023-01-05T17:52:54;9.40;75.30
16116;DHT22;8162;47.104;15.432;2023-01-05T17:55:20;9.40;75.40
16116;DHT22;8162;47.104;15.432;2023-01-05T17:57:46;9.40;75.40
16116;DHT22;8162;47.104;15.432;2023-01-05T18:00:14;9.40;75.70
16116;DHT22;8162;47.104;15.432;2023-01-05T18:02:40;9.40;75.70
16116;DHT22;8162;47.104;15.432;2023-01-05T18:05:07;9.40;75.70
16116;DHT22;8162;47.104;15.432;2023-01-05T18:07:34;9.40;75.80
16116;DHT22;8162;47.104;15.432;2023-01-05T18:10:00;9.40;76.10
16116;DHT22;8162;47.104;15.432;2023-01-05T18:12:27;9.40;76.00
16116;DHT22;8162;47.104;15.432;2023-01-05T18:14:53;9.40;76.10
16116;DHT22;8162;47.104;15.432;2023-01-05T18:17:20;9.40;76.20
16116;DHT22;8162;47.104;15.432;2023-01-05T18:19:45;9.40;76.50